createdAt,value
2022-12-05T00:02:01.991Z,5.64
2022-12-05T00:04:29.885Z,5.72
2022-12-05T00:06:59.001Z,6.22
2022-12-05T00:09:26.711Z,6.57
2022-12-05T00:11:54.467Z,5.89
2022-12-05T00:14:22.186Z,6.55
2022-12-05T00:16:49.894Z,6.53
2022-12-05T00:19:17.671Z,6.87
2022-12-05T00:21:45.655Z,6.80
2022-12-05T00:24:16.415Z,6.21
2022-12-05T00:26:44.383Z,6.48
2022-12-05T00:29:12.170Z,6.21
2022-12-05T00:31:40.043Z,6.09
2022-12-05T00:34:07.967Z,6.34
2022-12-05T00:36:36.302Z,5.80
2022-12-05T00:39:07.431Z,6.18
2022-12-05T00:41:36.732Z,5.94
2022-12-05T00:44:05.956Z,6.48
2022-12-05T00:46:34.674Z,5.93
2022-12-05T00:49:04.547Z,5.88
2022-12-05T00:51:34.022Z,6.22
2022-12-05T00:54:03.190Z,6.16
2022-12-05T00:56:32.224Z,6.46
2022-12-05T00:59:02.640Z,6.26
2022-12-05T01:01:33.006Z,6.77
2022-12-05T01:04:02.994Z,6.61
2022-12-05T01:06:31.182Z,5.92
2022-12-05T01:08:58.931Z,6.12
2022-12-05T01:11:27.849Z,6.14
2022-12-05T01:13:56.013Z,6.16
2022-12-05T01:16:27.482Z,5.82
2022-12-05T01:18:55.717Z,5.53
2022-12-05T01:21:24.218Z,5.60
2022-12-05T01:23:52.154Z,5.79
2022-12-05T01:26:21.473Z,5.90
2022-12-05T01:28:49.704Z,6.30
2022-12-05T01:31:22.060Z,6.36
2022-12-05T01:33:51.856Z,6.75
2022-12-05T01:36:20.024Z,6.82
2022-12-05T01:38:47.857Z,5.93
2022-12-05T01:41:17.488Z,6.41
2022-12-05T01:43:56.979Z,5.92
2022-12-05T01:46:25.113Z,6.12
2022-12-05T01:48:58.794Z,6.24
2022-12-05T01:51:26.960Z,6.22
2022-12-05T01:53:54.845Z,6.28
2022-12-05T01:56:22.835Z,6.08
2022-12-05T01:58:50.911Z,6.73
2022-12-05T02:01:20.026Z,6.01
2022-12-05T02:03:51.763Z,6.39
2022-12-05T02:06:21.643Z,5.99
2022-12-05T02:08:49.531Z,6.42
2022-12-05T02:11:17.302Z,6.71
2022-12-05T02:14:05.410Z,6.52
2022-12-05T02:16:44.852Z,6.02
2022-12-05T02:19:40.009Z,6.08
2022-12-05T02:22:59.342Z,6.17
2022-12-05T02:26:00.674Z,6.17
2022-12-05T02:28:44.332Z,6.24
2022-12-05T02:31:19.089Z,6.42
2022-12-05T02:33:51.204Z,6.32
2022-12-05T02:36:26.616Z,6.33
2022-12-05T02:39:01.984Z,6.25
2022-12-05T02:41:36.646Z,6.91
2022-12-05T02:44:07.771Z,6.45
2022-12-05T02:46:40.149Z,5.91
2022-12-05T02:49:11.940Z,6.14
2022-12-05T02:51:43.374Z,6.26
2022-12-05T02:54:17.366Z,6.38
2022-12-05T02:56:47.198Z,6.12
2022-12-05T02:59:19.857Z,6.71
2022-12-05T03:01:52.492Z,6.51
2022-12-05T03:04:23.700Z,6.64
2022-12-05T03:06:55.600Z,6.36
2022-12-05T03:09:27.328Z,6.25
2022-12-05T03:12:03.968Z,6.28
2022-12-05T03:14:37.855Z,5.89
2022-12-05T03:17:10.504Z,7.16
2022-12-05T03:19:45.615Z,6.05
2022-12-05T03:22:18.081Z,6.48
2022-12-05T03:24:45.848Z,6.10
2022-12-05T03:27:23.856Z,6.60
2022-12-05T03:29:56.937Z,6.10
2022-12-05T03:32:32.307Z,7.02
2022-12-05T03:35:08.479Z,6.61
2022-12-05T03:37:44.908Z,6.33
2022-12-05T03:40:24.353Z,7.30
2022-12-05T03:42:58.665Z,6.77
2022-12-05T03:45:33.252Z,6.53
2022-12-05T03:48:10.637Z,6.29
2022-12-05T03:50:43.046Z,6.15
2022-12-05T03:53:20.063Z,6.53
2022-12-05T03:55:55.181Z,6.33
2022-12-05T03:58:28.943Z,6.04
2022-12-05T04:01:00.502Z,5.78
2022-12-05T04:03:39.556Z,6.20
2022-12-05T04:06:13.099Z,6.45
2022-12-05T04:08:46.658Z,5.98
2022-12-05T04:11:18.654Z,7.07
2022-12-05T04:13:50.170Z,6.52
2022-12-05T04:16:40.817Z,6.51
2022-12-05T04:19:13.216Z,6.80
2022-12-05T04:21:45.403Z,6.44
2022-12-05T04:24:34.904Z,6.63
2022-12-05T04:27:12.384Z,6.76
2022-12-05T04:29:51.824Z,6.39
2022-12-05T04:32:21.722Z,6.99
2022-12-05T04:34:59.670Z,6.71
2022-12-05T04:37:32.714Z,6.68
2022-12-05T04:40:05.537Z,6.69
2022-12-05T04:42:36.808Z,6.50
2022-12-05T04:45:09.217Z,6.56
2022-12-05T04:47:40.782Z,6.56
2022-12-05T04:50:13.247Z,6.39
2022-12-05T04:52:42.843Z,6.85
2022-12-05T04:55:14.420Z,6.42
2022-12-05T04:57:51.706Z,6.92
2022-12-05T05:00:19.886Z,6.79
2022-12-05T05:02:53.092Z,7.32
2022-12-05T05:05:24.393Z,6.80
2022-12-05T05:07:54.349Z,6.40
2022-12-05T05:10:27.953Z,6.56
2022-12-05T05:12:56.259Z,7.29
2022-12-05T05:15:24.264Z,7.55
2022-12-05T05:17:51.975Z,7.10
2022-12-05T05:20:26.941Z,7.17
2022-12-05T05:22:57.534Z,7.73
2022-12-05T05:25:26.516Z,7.78
2022-12-05T05:27:55.941Z,8.03
2022-12-05T05:30:25.516Z,7.79
2022-12-05T05:32:53.841Z,7.11
2022-12-05T05:35:21.772Z,7.73
2022-12-05T05:37:49.484Z,7.53
2022-12-05T05:40:18.929Z,7.14
2022-12-05T05:42:47.777Z,6.21
2022-12-05T05:45:17.020Z,6.60
2022-12-05T05:47:45.286Z,7.40
2022-12-05T05:50:19.511Z,6.94
2022-12-05T05:52:49.043Z,6.56
2022-12-05T05:55:18.273Z,6.71
2022-12-05T05:57:46.240Z,6.26
2022-12-05T06:00:15.201Z,6.39
2022-12-05T06:02:45.331Z,7.09
2022-12-05T06:05:13.356Z,6.58
2022-12-05T06:07:41.086Z,6.85
2022-12-05T06:10:09.860Z,6.75
2022-12-05T06:12:39.030Z,7.32
2022-12-05T06:15:08.416Z,6.71
2022-12-05T06:17:36.175Z,6.04
2022-12-05T06:20:04.378Z,6.08
2022-12-05T06:22:32.162Z,5.97
2022-12-05T06:25:00.027Z,5.89
2022-12-05T06:27:29.975Z,5.83
2022-12-05T06:29:59.380Z,6.37
2022-12-05T06:32:29.400Z,6.08
2022-12-05T06:34:57.165Z,6.69
2022-12-05T06:37:24.917Z,6.30
2022-12-05T06:39:53.136Z,6.04
2022-12-05T06:42:22.284Z,6.57
2022-12-05T06:44:50.213Z,6.25
2022-12-05T06:47:19.318Z,6.70
2022-12-05T06:49:47.087Z,6.27
2022-12-05T06:52:15.061Z,5.72
2022-12-05T06:54:42.840Z,6.15
2022-12-05T06:57:10.706Z,6.09
2022-12-05T06:59:38.429Z,6.26
2022-12-05T07:02:08.114Z,5.97
2022-12-05T07:04:37.430Z,5.89
2022-12-05T07:07:05.489Z,6.83
2022-12-05T07:09:48.234Z,6.15
2022-12-05T07:12:18.593Z,5.89
2022-12-05T07:14:48.528Z,6.48
2022-12-05T07:17:17.473Z,5.74
2022-12-05T07:19:49.044Z,5.92
2022-12-05T07:22:16.962Z,5.69
2022-12-05T07:24:45.065Z,5.89
2022-12-05T07:27:13.688Z,5.65
2022-12-05T07:29:41.434Z,5.50
2022-12-05T07:32:09.635Z,5.60
2022-12-05T07:34:38.831Z,5.92
2022-12-05T07:37:08.151Z,5.47
2022-12-05T07:39:35.932Z,5.69
2022-12-05T07:42:03.628Z,5.54
2022-12-05T07:44:31.295Z,5.93
2022-12-05T07:46:59.363Z,6.26
2022-12-05T07:49:27.275Z,5.32
2022-12-05T07:51:54.939Z,5.68
2022-12-05T07:54:24.177Z,5.69
2022-12-05T07:56:51.855Z,5.27
2022-12-05T07:59:19.660Z,5.98
2022-12-05T08:01:47.591Z,6.24
2022-12-05T08:04:16.090Z,5.85
2022-12-05T08:06:43.994Z,5.47
2022-12-05T08:09:12.411Z,5.71
2022-12-05T08:11:41.793Z,6.30
2022-12-05T08:14:09.726Z,5.84
2022-12-05T08:16:37.721Z,5.72
2022-12-05T08:19:07.741Z,6.04
2022-12-05T08:21:36.354Z,6.06
2022-12-05T08:24:06.434Z,6.09
2022-12-05T08:26:36.120Z,6.07
2022-12-05T08:29:07.947Z,6.38
2022-12-05T08:31:37.762Z,6.00
2022-12-05T08:34:05.769Z,5.56
2022-12-05T08:36:33.527Z,5.80
2022-12-05T08:39:03.098Z,5.48
2022-12-05T08:41:31.424Z,5.20
2022-12-05T08:44:01.446Z,5.12
2022-12-05T08:46:30.900Z,4.76
2022-12-05T08:48:58.644Z,5.50
2022-12-05T08:51:26.676Z,5.14
2022-12-05T08:53:56.418Z,4.91
2022-12-05T08:56:27.079Z,5.34
2022-12-05T08:59:01.104Z,5.40
2022-12-05T09:01:36.744Z,5.22
2022-12-05T09:04:05.519Z,5.35
2022-12-05T09:06:34.343Z,4.99
2022-12-05T09:09:05.031Z,5.13
2022-12-05T09:11:34.833Z,5.50
2022-12-05T09:14:04.865Z,4.80
2022-12-05T09:16:38.549Z,4.53
2022-12-05T09:19:07.478Z,5.33
2022-12-05T09:21:35.224Z,5.49
2022-12-05T09:24:03.034Z,5.37
2022-12-05T09:26:31.108Z,4.62
2022-12-05T09:28:59.207Z,5.14
2022-12-05T09:31:28.216Z,4.61
2022-12-05T09:33:57.608Z,5.13
2022-12-05T09:36:27.670Z,5.17
2022-12-05T09:38:56.874Z,4.97
2022-12-05T09:42:00.824Z,4.57
2022-12-05T09:44:42.394Z,4.93
2022-12-05T09:47:21.757Z,4.41
2022-12-05T09:49:55.626Z,4.44
2022-12-05T09:52:28.100Z,5.18
2022-12-05T09:54:57.172Z,4.97
2022-12-05T09:57:34.769Z,5.10
2022-12-05T10:00:06.042Z,4.66
2022-12-05T10:02:43.529Z,5.15
2022-12-05T10:05:18.665Z,5.28
2022-12-05T10:07:55.179Z,5.22
2022-12-05T10:10:30.708Z,5.21
2022-12-05T10:13:15.509Z,5.51
2022-12-05T10:15:47.740Z,5.13
2022-12-05T10:18:29.872Z,5.26
2022-12-05T10:21:03.584Z,5.11
2022-12-05T10:23:57.429Z,5.16
2022-12-05T10:26:26.256Z,4.97
2022-12-05T10:28:59.863Z,5.71
2022-12-05T10:31:31.617Z,5.49
2022-12-05T10:34:05.499Z,5.65
2022-12-05T10:36:35.490Z,5.97
2022-12-05T10:39:07.019Z,4.97
2022-12-05T10:41:39.323Z,5.15
2022-12-05T10:44:07.376Z,5.02
2022-12-05T10:46:35.263Z,5.13
2022-12-05T10:49:03.590Z,5.82
2022-12-05T10:51:37.224Z,5.90
2022-12-05T10:54:18.257Z,5.56
2022-12-05T10:56:47.664Z,5.46
2022-12-05T10:59:17.138Z,5.39
2022-12-05T11:01:49.460Z,5.57
2022-12-05T11:04:31.572Z,6.05
2022-12-05T11:07:01.156Z,5.22
2022-12-05T11:09:32.459Z,5.22
2022-12-05T11:12:15.734Z,5.41
2022-12-05T11:14:57.132Z,6.12
2022-12-05T11:17:27.891Z,6.36
2022-12-05T11:19:55.832Z,5.61
2022-12-05T11:22:33.057Z,5.62
2022-12-05T11:25:02.688Z,5.89
2022-12-05T11:27:33.163Z,6.22
2022-12-05T11:30:03.129Z,6.19
2022-12-05T11:32:32.411Z,6.56
2022-12-05T11:35:08.811Z,5.54
2022-12-05T11:37:41.401Z,5.68
2022-12-05T11:40:23.902Z,5.11
2022-12-05T11:43:17.582Z,5.74
2022-12-05T11:45:55.179Z,5.94
2022-12-05T11:48:42.418Z,5.52
2022-12-05T11:51:22.140Z,5.53
2022-12-05T11:54:30.610Z,5.64
2022-12-05T11:57:19.624Z,5.49
2022-12-05T12:00:12.855Z,5.90
2022-12-05T12:03:06.947Z,6.18
2022-12-05T12:05:42.313Z,6.13
2022-12-05T12:08:21.033Z,5.51
2022-12-05T12:10:59.679Z,5.85
2022-12-05T12:13:40.453Z,5.23
2022-12-05T12:16:16.867Z,5.69
2022-12-05T12:19:10.810Z,5.72
2022-12-05T12:21:53.172Z,5.85
2022-12-05T12:24:32.625Z,6.06
2022-12-05T12:27:10.393Z,6.29
2022-12-05T12:29:56.491Z,4.98
2022-12-05T12:32:39.098Z,5.49
2022-12-05T12:35:28.523Z,5.55
2022-12-05T12:38:13.505Z,5.20
2022-12-05T12:40:48.264Z,5.27
2022-12-05T12:43:52.705Z,4.80
2022-12-05T12:46:29.128Z,4.99
2022-12-05T12:49:12.330Z,5.25
2022-12-05T12:51:52.767Z,5.04
2022-12-05T12:55:02.112Z,5.45
2022-12-05T12:57:30.467Z,5.74
2022-12-05T13:00:12.146Z,5.98
2022-12-05T13:02:49.062Z,6.54
2022-12-05T13:05:28.100Z,6.46
2022-12-05T13:08:05.741Z,6.09
2022-12-05T13:10:36.731Z,5.69
2022-12-05T13:13:07.223Z,6.46
2022-12-05T13:15:40.956Z,5.78
2022-12-05T13:18:21.988Z,5.47
2022-12-05T13:20:52.780Z,6.12
2022-12-05T13:23:24.034Z,6.03
2022-12-05T13:25:54.204Z,5.79
2022-12-05T13:28:29.113Z,5.43
2022-12-05T13:31:03.831Z,5.72
2022-12-05T13:33:36.342Z,5.66
2022-12-05T13:36:27.810Z,5.87
2022-12-05T13:39:16.679Z,5.66
2022-12-05T13:42:04.576Z,5.90
2022-12-05T13:44:42.008Z,5.31
2022-12-05T13:47:28.445Z,5.62
2022-12-05T13:50:04.577Z,6.06
2022-12-05T13:52:40.010Z,5.67
2022-12-05T13:55:22.361Z,5.87
2022-12-05T13:57:54.019Z,6.36
2022-12-05T14:00:29.416Z,6.53
2022-12-05T14:03:01.688Z,6.59
2022-12-05T14:05:51.033Z,6.56
2022-12-05T14:08:57.274Z,6.59
2022-12-05T14:11:25.266Z,6.84
2022-12-05T14:13:53.500Z,5.75
2022-12-05T14:16:45.938Z,5.50
2022-12-05T14:19:28.627Z,5.70
2022-12-05T14:22:13.339Z,5.67
2022-12-05T14:24:53.101Z,5.78
2022-12-05T14:27:30.807Z,6.35
2022-12-05T14:30:05.547Z,5.85
2022-12-05T14:32:36.360Z,5.48
2022-12-05T14:35:12.626Z,5.44
2022-12-05T14:37:49.822Z,5.52
2022-12-05T14:40:25.444Z,5.30
2022-12-05T14:42:55.549Z,5.87
2022-12-05T14:45:30.623Z,5.66
2022-12-05T14:48:00.648Z,5.85
2022-12-05T14:50:42.064Z,6.12
2022-12-05T14:53:27.291Z,6.39
2022-12-05T14:55:59.704Z,6.42
2022-12-05T14:58:34.535Z,5.53
2022-12-05T15:01:07.700Z,5.73
2022-12-05T15:03:38.357Z,6.40
2022-12-05T15:06:11.545Z,6.26
2022-12-05T15:08:47.268Z,5.60
2022-12-05T15:11:28.270Z,5.54
2022-12-05T15:13:59.560Z,5.75
2022-12-05T15:16:30.065Z,6.08
2022-12-05T15:19:01.931Z,5.65
2022-12-05T15:21:35.026Z,6.11
2022-12-05T15:24:07.595Z,6.47
2022-12-05T15:26:48.441Z,6.64
2022-12-05T15:29:25.319Z,6.53
2022-12-05T15:31:55.201Z,6.75
2022-12-05T15:34:27.153Z,6.72
2022-12-05T15:36:59.871Z,6.78
2022-12-05T15:39:29.284Z,6.88
2022-12-05T15:41:58.270Z,6.85
2022-12-05T15:44:35.950Z,6.76
2022-12-05T15:47:05.736Z,6.46
2022-12-05T15:49:33.466Z,6.50
2022-12-05T15:52:12.025Z,6.21
2022-12-05T15:54:43.795Z,6.39
2022-12-05T15:57:19.865Z,6.51
2022-12-05T15:59:54.135Z,6.55
2022-12-05T16:02:27.064Z,6.36
2022-12-05T16:04:59.611Z,6.40
2022-12-05T16:07:31.645Z,6.16
2022-12-05T16:10:02.260Z,6.55
2022-12-05T16:12:36.440Z,6.48
2022-12-05T16:15:11.363Z,6.69
2022-12-05T16:17:43.348Z,6.80
2022-12-05T16:20:13.686Z,6.77
2022-12-05T16:22:45.316Z,6.80
2022-12-05T16:25:17.717Z,6.80
2022-12-05T16:27:57.806Z,6.65
2022-12-05T16:30:36.102Z,6.32
2022-12-05T16:33:09.655Z,6.66
2022-12-05T16:35:39.968Z,6.66
2022-12-05T16:38:21.350Z,6.51
2022-12-05T16:40:59.479Z,6.38
2022-12-05T16:43:44.385Z,6.52
2022-12-05T16:46:43.320Z,6.26
2022-12-05T16:49:35.163Z,6.57
2022-12-05T16:52:14.127Z,5.93
2022-12-05T16:54:42.610Z,6.22
2022-12-05T16:57:14.175Z,6.53
2022-12-05T16:59:44.025Z,6.56
2022-12-05T17:02:14.692Z,6.52
2022-12-05T17:04:42.933Z,6.53
2022-12-05T17:07:11.066Z,6.49
2022-12-05T17:09:38.814Z,6.64
2022-12-05T17:12:12.510Z,6.54
2022-12-05T17:14:41.639Z,6.65
2022-12-05T17:17:13.458Z,6.80
2022-12-05T17:19:41.231Z,6.77
2022-12-05T17:22:08.968Z,6.81
2022-12-05T17:24:36.835Z,6.63
2022-12-05T17:27:06.837Z,6.73
2022-12-05T17:29:36.043Z,6.70
2022-12-05T17:32:05.655Z,6.17
2022-12-05T17:34:33.627Z,6.70
2022-12-05T17:37:01.416Z,6.68
2022-12-05T17:39:29.225Z,6.68
2022-12-05T17:41:57.185Z,6.50
2022-12-05T17:44:25.400Z,6.38
2022-12-05T17:46:53.227Z,6.63
2022-12-05T17:49:22.808Z,6.27
2022-12-05T17:54:41.602Z,6.53
2022-12-05T17:57:09.433Z,6.52
2022-12-05T17:59:38.228Z,6.47
2022-12-05T18:02:06.477Z,6.30
2022-12-05T18:04:35.536Z,6.50
2022-12-05T18:07:03.287Z,6.45
2022-12-05T18:09:31.123Z,6.47
2022-12-05T18:11:58.809Z,6.29
2022-12-05T18:14:28.318Z,6.42
2022-12-05T18:16:56.223Z,6.54
2022-12-05T18:19:24.143Z,6.43
2022-12-05T18:21:53.525Z,6.46
2022-12-05T18:24:21.711Z,6.46
2022-12-05T18:26:49.554Z,6.45
2022-12-05T18:29:17.471Z,6.31
2022-12-05T18:31:45.220Z,6.29
2022-12-05T18:34:12.990Z,6.34
2022-12-05T18:36:41.010Z,6.30
2022-12-05T18:39:13.221Z,6.10
2022-12-05T18:41:41.324Z,6.56
2022-12-05T18:44:09.941Z,6.59
2022-12-05T18:46:38.174Z,6.60
2022-12-05T18:49:06.170Z,6.61
2022-12-05T18:51:34.063Z,6.66
2022-12-05T18:54:01.964Z,6.58
2022-12-05T18:56:34.578Z,6.62
2022-12-05T18:59:04.832Z,6.51
2022-12-05T19:01:34.000Z,6.01
2022-12-05T19:04:03.441Z,6.46
2022-12-05T19:06:33.555Z,6.21
2022-12-05T19:09:04.141Z,6.45
2022-12-05T19:11:34.267Z,6.36
2022-12-05T19:14:04.633Z,6.47
2022-12-05T19:16:35.033Z,6.14
2022-12-05T19:19:04.284Z,6.40
2022-12-05T19:21:33.889Z,6.36
2022-12-05T19:24:03.885Z,6.45
2022-12-05T19:26:33.408Z,6.55
2022-12-05T19:29:01.910Z,6.23
2022-12-05T19:31:30.479Z,6.48
2022-12-05T19:34:01.272Z,6.48
2022-12-05T19:36:31.748Z,6.13
2022-12-05T19:39:00.541Z,6.24
2022-12-05T19:41:30.762Z,6.36
2022-12-05T19:44:02.092Z,6.35
2022-12-05T19:46:31.278Z,6.47
2022-12-05T19:49:00.296Z,6.29
2022-12-05T19:51:28.733Z,6.33
2022-12-05T19:53:56.574Z,6.56
2022-12-05T19:56:25.955Z,6.52
2022-12-05T19:58:54.745Z,6.45
2022-12-05T20:01:26.499Z,6.35
2022-12-05T20:03:57.847Z,6.39
2022-12-05T20:06:27.077Z,6.42
2022-12-05T20:08:54.818Z,6.41
2022-12-05T20:11:25.094Z,6.12
2022-12-05T20:13:54.489Z,6.36
2022-12-05T20:16:27.107Z,6.24
2022-12-05T20:18:58.982Z,6.37
2022-12-05T20:21:28.940Z,6.28
2022-12-05T20:23:59.977Z,6.12
2022-12-05T20:26:29.923Z,6.31
2022-12-05T20:28:59.152Z,6.36
2022-12-05T20:31:30.263Z,6.36
2022-12-05T20:33:58.413Z,6.21
2022-12-05T20:36:27.833Z,6.40
2022-12-05T20:38:57.208Z,6.26
2022-12-05T20:41:28.606Z,6.33
2022-12-05T20:43:59.721Z,6.31
2022-12-05T20:46:30.296Z,5.87
2022-12-05T20:48:58.978Z,6.17
2022-12-05T20:51:28.901Z,6.49
2022-12-05T20:53:58.151Z,6.30
2022-12-05T20:56:28.254Z,6.47
2022-12-05T20:58:58.006Z,6.53
2022-12-05T21:01:32.063Z,6.55
2022-12-05T21:04:00.288Z,6.54
2022-12-05T21:06:30.059Z,6.41
2022-12-05T21:08:58.949Z,6.11
2022-12-05T21:11:28.098Z,6.07
2022-12-05T21:14:00.936Z,5.97
2022-12-05T21:16:33.264Z,6.10
2022-12-05T21:19:01.431Z,6.28
2022-12-05T21:21:31.948Z,6.15
2022-12-05T21:24:01.636Z,6.46
2022-12-05T21:26:31.479Z,6.33
2022-12-05T21:28:59.967Z,6.27
2022-12-05T21:31:31.114Z,6.10
2022-12-05T21:34:01.376Z,6.32
2022-12-05T21:36:32.935Z,6.35
2022-12-05T21:39:00.861Z,6.02
2022-12-05T21:41:29.271Z,5.86
2022-12-05T21:43:59.722Z,6.08
2022-12-05T21:46:27.944Z,6.25
2022-12-05T21:48:57.027Z,6.34
2022-12-05T21:51:25.221Z,6.20
2022-12-05T21:53:53.243Z,6.35
2022-12-05T21:56:22.915Z,6.36
2022-12-05T21:58:51.152Z,6.27
2022-12-05T22:01:21.734Z,5.95
2022-12-05T22:03:52.864Z,6.15
2022-12-05T22:06:21.961Z,6.20
2022-12-05T22:08:49.726Z,6.30
2022-12-05T22:11:19.431Z,6.37
2022-12-05T22:13:47.469Z,6.28
2022-12-05T22:16:15.568Z,6.30
2022-12-05T22:18:43.360Z,6.19
2022-12-05T22:21:14.425Z,6.17
2022-12-05T22:23:43.941Z,6.26
2022-12-05T22:26:13.076Z,6.13
2022-12-05T22:28:41.732Z,6.19
2022-12-05T22:31:12.853Z,6.15
2022-12-05T22:33:40.754Z,6.26
2022-12-05T22:36:10.025Z,6.25
2022-12-05T22:38:39.424Z,6.28
2022-12-05T22:41:10.682Z,6.41
2022-12-05T22:43:39.296Z,6.37
2022-12-05T22:46:08.728Z,6.35
2022-12-05T22:48:37.011Z,6.39
2022-12-05T22:51:05.957Z,6.30
2022-12-05T22:53:33.909Z,6.12
2022-12-05T22:56:08.624Z,6.08
2022-12-05T22:58:38.369Z,6.08
2022-12-05T23:01:10.719Z,6.18
2022-12-05T23:03:38.704Z,6.26
2022-12-05T23:06:11.515Z,6.38
2022-12-05T23:08:41.143Z,6.37
2022-12-05T23:11:10.460Z,6.53
2022-12-05T23:13:40.433Z,6.38
2022-12-05T23:16:10.252Z,6.23
2022-12-05T23:18:47.837Z,6.14
2022-12-05T23:21:17.596Z,6.12
2022-12-05T23:23:46.010Z,6.28
2022-12-05T23:26:14.134Z,6.21
2022-12-05T23:28:43.659Z,6.41
2022-12-05T23:31:12.778Z,6.39
2022-12-05T23:33:41.251Z,6.20
2022-12-05T23:36:10.827Z,6.23
2022-12-05T23:38:41.084Z,6.39
2022-12-05T23:41:11.767Z,6.41
2022-12-05T23:43:39.722Z,6.33
2022-12-05T23:46:10.121Z,6.32
2022-12-05T23:48:37.966Z,6.46
2022-12-05T23:51:08.831Z,6.38
2022-12-05T23:53:39.537Z,6.57
2022-12-05T23:56:11.474Z,6.29
2022-12-05T23:58:39.673Z,6.57
